UHMM Airport Information

Runway Information
Runway 10 Length 11326 ft width 195 ft
Elevation 546 ft Threshold 0 ft Heading 93
Runway 28 Length 11326 ft Width 195 ft
Elevation 574 ft Threshold 0 ft Heading 273
Airport Frequencies
Type APP Name MAGADAN AP Frequency 126.9 MHZ
Type ATIS Name ATIS Frequency 127.4 MHZ
Type PMSV Name MAGADAN VO Frequency 126.2 MHZ
Type TWR Name MAGADAN TW Frequency 120.8 MHZ
Airport Navaids
Type NDB Name Magadan Frequency 375 KHZ
Type NDB Name Magadan Frequency 375 KHZ
Airport Weather Information & NOTAM
ADDS - METARS form results

(0007 UTC 02 August 2021)
Data provider http://aviationweather.gov/metar/data/
 
METAR text: UHMM 020000Z 36006G13MPS 9999 SCT043 15/M00 Q1015 R10/CLRD70 NOSIG RMK QFE746 R28/02006G11MPS
Conditions at: UHMM (MAGADAN/NAGAEVO , RU) observed 0000 UTC 02 August 2021
Temperature: 15.0°C (59°F)
Dewpoint: 0.0°C (32°F) [RH = 36%]
Pressure (altimeter): 29.97 inches Hg (1015.0 mb)
Winds: from the N (360 degrees) at 14 MPH (12 knots; 6.2 m/s)
gusting to 29 MPH (25 knots; 12.9 m/s)
Visibility: 6 or more miles (10+ km)
Ceiling: at least 12,000 feet AGL
Clouds: scattered clouds at 4300 feet AGL
Weather: no significant weather observed at this time

METAR text: UHMM 012330Z 36005MPS 9999 SCT050 15/01 Q1015 R10/70D NOSIG RMK QFE746 R28/02006MPS
Conditions at: UHMM (MAGADAN/NAGAEVO , RU) observed 2330 UTC 01 August 2021
Temperature: 15.0°C (59°F)
Dewpoint: 1.0°C (34°F) [RH = 39%]
Pressure (altimeter): 29.97 inches Hg (1015.0 mb)
Winds: from the N (360 degrees) at 12 MPH (10 knots; 5.1 m/s)
Visibility: 6 or more miles (10+ km)
Ceiling: at least 12,000 feet AGL
Clouds: scattered clouds at 5000 feet AGL
Weather: no significant weather observed at this time

Forecast for: UHMM (MAGADAN/NAGAEVO , RU)
Text: TAF UHMM 012252Z 0200/0306 01006G16MPS 9999 SCT040
Forecast period: 0000 UTC 02 August 2021 to 0600 UTC 03 August 2021
Forecast type: FROM: standard forecast or significant change
Winds: from the N (10 degrees) at 14 MPH (12 knots; 6.2 m/s)
gusting to 36 MPH (31 knots; 15.9 m/s)
Visibility: 6 or more miles (10+ km)
Ceiling: at least 12,000 feet AGL
Clouds: scattered clouds at 4000 feet AGL
Weather: no significant weather forecast for this period